Time;durP1;ratioP1;P1;durP2;ratioP2;P2;SDS_P1;SDS_P2;PMS_P1;PMS_P2;Temp;Humidity;BMP_temperature;BMP_pressure;BME280_temperature;BME280_humidity;BME280_pressure;Samples;Min_cycle;Max_cycle;Signal;HPM_P1;HPM_P2
2022/06/22 00:00:15;;;;;;;;;;;;;;;14.88;100.00;101412.69;2613802;36;19957;-57
2022/06/22 00:02:45;;;;;;;;;;;;;;;14.86;100.00;101413.81;2615267;36;20328;-53
2022/06/22 00:05:20;;;;;;;;;;;;;;;14.76;100.00;101413.03;2614062;36;19963;-57
2022/06/22 00:07:53;;;;;;;;;;;;;;;14.63;100.00;101414.19;2615578;36;19955;-57
2022/06/22 00:10:24;;;;;;;;;;;;;;;14.49;100.00;101426.34;2615944;31;20351;-57
2022/06/22 00:12:54;;;;;;;;;;;;;;;14.46;100.00;101423.94;2615159;36;19954;-55
2022/06/22 00:15:24;;;;;;;;;;;;;;;14.51;100.00;101428.91;2614995;36;19950;-56
2022/06/22 00:17:52;;;;;;;;;;;;;;;14.35;100.00;101427.69;2616262;36;19947;-51
2022/06/22 00:20:25;;;;;;;;;;;;;;;14.36;100.00;101426.66;2615901;36;19950;-58
2022/06/22 00:22:55;;;;;;;;;;;;;;;14.31;100.00;101438.94;2614847;36;20436;-57
2022/06/22 00:25:25;;;;;;;;;;;;;;;14.22;100.00;101435.25;2614546;36;19947;-58
2022/06/22 00:30:23;;;;;;;;;;;;;;;14.20;100.00;101437.25;2613801;36;19981;-57
2022/06/22 00:32:55;;;;;;;;;;;;;;;14.30;100.00;101427.25;2615213;36;19957;-57
2022/06/22 00:35:45;;;;;;;;;;;;;;;14.17;100.00;101432.16;2614827;39;20395;-56
2022/06/22 00:38:15;;;;;;;;;;;;;;;14.23;100.00;101426.13;2613439;36;19947;-57
2022/06/22 00:40:44;;;;;;;;;;;;;;;14.19;100.00;101430.13;2613896;36;20368;-53
2022/06/22 00:43:15;;;;;;;;;;;;;;;14.10;100.00;101441.84;2614143;36;19947;-57
2022/06/22 00:45:43;;;;;;;;;;;;;;;14.06;100.00;101444.00;2615061;36;20322;-53
2022/06/22 00:48:17;;;;;;;;;;;;;;;13.92;100.00;101449.84;2614310;31;19962;-54
2022/06/22 00:50:50;;;;;;;;;;;;;;;13.84;100.00;101442.47;2614296;36;19994;-56
2022/06/22 00:56:00;;;;;;;;;;;;;;;13.61;100.00;101440.03;2614876;36;19971;-56
2022/06/22 01:00:58;;;;;;;;;;;;;;;13.51;100.00;101441.84;2616250;36;20314;-61
2022/06/22 01:03:28;;;;;;;;;;;;;;;13.46;100.00;101438.75;2614195;36;20546;-57
2022/06/22 01:12:16;;;;;;;;;;;;;;;13.29;100.00;101430.28;2614515;36;20812;-55
2022/06/22 01:16:36;;;;;;;;;;;;;;;13.23;100.00;101422.72;2615686;36;19954;-56
2022/06/22 01:29:16;;;;;;;;;;;;;;;13.34;100.00;101427.19;2614420;54;19938;-57
2022/06/22 01:34:20;;;;;;;;;;;;;;;13.17;100.00;101422.44;2612658;54;20416;-56
2022/06/22 02:09:40;;;;;;;;;;;;;;;12.79;100.00;101414.06;2614661;36;20038;-55
2022/06/22 02:12:27;;;;;;;;;;;;;;;12.80;100.00;101411.25;2615961;36;19947;-57
2022/06/22 02:14:59;;;;;;;;;;;;;;;12.83;100.00;101409.28;2617297;36;20379;-57
2022/06/22 02:24:56;;;;;;;;;;;;;;;12.69;100.00;101434.78;2614135;36;19981;-60
2022/06/22 02:35:13;;;;;;;;;;;;;;;12.56;100.00;101432.34;2614894;54;19950;-55
2022/06/22 02:37:45;;;;;;;;;;;;;;;12.49;100.00;101442.81;2616888;36;19953;-55
2022/06/22 02:45:27;;;;;;;;;;;;;;;12.23;100.00;101435.16;2614528;36;19953;-57
2022/06/22 02:47:59;;;;;;;;;;;;;;;12.24;100.00;101420.66;2625874;36;20580;-56
2022/06/22 02:53:15;;;;;;;;;;;;;;;12.16;100.00;101407.00;2617002;36;19974;-54
2022/06/22 03:00:44;;;;;;;;;;;;;;;12.25;100.00;101400.78;2614456;54;19943;-58
2022/06/22 03:03:17;;;;;;;;;;;;;;;12.24;100.00;101404.47;2615073;36;19950;-55
2022/06/22 03:05:50;;;;;;;;;;;;;;;12.25;100.00;101384.59;2614614;36;19939;-55
2022/06/22 03:08:21;;;;;;;;;;;;;;;12.22;100.00;101379.47;2618882;36;20026;-59
2022/06/22 03:10:52;;;;;;;;;;;;;;;12.21;100.00;101377.75;2615459;36;19946;-59
2022/06/22 03:13:22;;;;;;;;;;;;;;;12.20;100.00;101376.03;2613593;47;19954;-55
2022/06/22 03:15:52;;;;;;;;;;;;;;;12.18;100.00;101364.53;2614490;47;19950;-58
2022/06/22 03:21:13;;;;;;;;;;;;;;;12.32;100.00;101362.44;2615397;36;20096;-56
2022/06/22 03:23:45;;;;;;;;;;;;;;;12.19;100.00;101355.44;2615051;36;19953;-57
2022/06/22 03:26:15;;;;;;;;;;;;;;;12.18;100.00;101344.78;2615237;36;19969;-59
2022/06/22 03:31:11;;;;;;;;;;;;;;;12.07;100.00;101335.78;2614775;36;19947;-56
2022/06/22 03:33:45;;;;;;;;;;;;;;;12.03;100.00;101342.44;2613789;36;19952;-55
2022/06/22 03:38:57;;;;;;;;;;;;;;;12.05;100.00;101331.50;2614481;36;20360;-54
2022/06/22 03:41:28;;;;;;;;;;;;;;;12.10;100.00;101340.03;2614357;47;20038;-54
2022/06/22 03:49:26;;;;;;;;;;;;;;;12.08;100.00;101347.44;2615698;54;19953;-58
2022/06/22 03:54:51;;;;;;;;;;;;;;;12.14;100.00;101343.34;2613877;36;19946;-56
2022/06/22 03:57:23;;;;;;;;;;;;;;;12.17;100.00;101349.31;2614807;47;19965;-58
2022/06/22 04:02:31;;;;;;;;;;;;;;;12.18;100.00;101359.13;2617956;36;20062;-57
2022/06/22 04:07:27;;;;;;;;;;;;;;;12.12;100.00;101362.38;2614311;36;19951;-57
2022/06/22 04:09:58;;;;;;;;;;;;;;;12.19;100.00;101366.25;2615594;36;19946;-56
2022/06/22 04:12:30;;;;;;;;;;;;;;;12.24;100.00;101357.75;2613503;36;20463;-56
2022/06/22 04:15:04;;;;;;;;;;;;;;;12.21;100.00;101366.94;2616075;31;20442;-57
2022/06/22 04:17:34;;;;;;;;;;;;;;;12.32;100.00;101379.50;2614203;54;19953;-58
2022/06/22 04:20:05;;;;;;;;;;;;;;;12.30;100.00;101391.44;2615512;36;19947;-57
2022/06/22 04:22:35;;;;;;;;;;;;;;;12.27;100.00;101396.09;2614375;36;19955;-57
2022/06/22 04:25:08;;;;;;;;;;;;;;;12.33;100.00;101402.81;2615466;31;19950;-58
2022/06/22 04:27:38;;;;;;;;;;;;;;;12.43;100.00;101402.88;2615183;36;19961;-55
2022/06/22 04:32:51;;;;;;;;;;;;;;;12.56;100.00;101400.78;2613347;31;20307;-57
2022/06/22 04:37:59;;;;;;;;;;;;;;;12.71;100.00;101397.72;2614436;54;19958;-58
2022/06/22 04:40:33;;;;;;;;;;;;;;;12.77;100.00;101399.88;2619489;31;19946;-58
2022/06/22 04:43:03;;;;;;;;;;;;;;;12.87;100.00;101406.16;2615009;36;19950;-58
2022/06/22 04:45:32;;;;;;;;;;;;;;;12.90;100.00;101395.06;2615825;31;19946;-57
2022/06/22 04:50:46;;;;;;;;;;;;;;;13.07;100.00;101404.38;2634745;36;19946;-56
2022/06/22 04:55:55;;;;;;;;;;;;;;;13.22;100.00;101412.94;2614064;54;19957;-58
2022/06/22 04:58:30;;;;;;;;;;;;;;;13.42;100.00;101399.44;2614901;31;20005;-57
2022/06/22 05:00:58;;;;;;;;;;;;;;;13.50;100.00;101399.59;2615217;36;19976;-57
2022/06/22 05:03:27;;;;;;;;;;;;;;;13.59;100.00;101401.44;2614363;36;20347;-58
2022/06/22 05:05:56;;;;;;;;;;;;;;;13.79;100.00;101404.97;2615251;36;19951;-56
2022/06/22 05:08:27;;;;;;;;;;;;;;;13.90;100.00;101401.28;2614594;31;20417;-57
2022/06/22 05:11:00;;;;;;;;;;;;;;;13.99;100.00;101408.53;2614608;36;20451;-58
2022/06/22 05:13:29;;;;;;;;;;;;;;;14.23;100.00;101399.06;2615160;36;19950;-58
2022/06/22 05:15:59;;;;;;;;;;;;;;;14.43;100.00;101404.41;2615047;31;19954;-59
2022/06/22 05:18:29;;;;;;;;;;;;;;;14.51;100.00;101401.81;2615167;36;20321;-58
2022/06/22 05:23:42;;;;;;;;;;;;;;;14.68;100.00;101392.94;2613964;36;19955;-55
2022/06/22 05:26:19;;;;;;;;;;;;;;;14.73;100.00;101394.34;2615227;36;20439;-56
2022/06/22 05:28:52;;;;;;;;;;;;;;;14.77;100.00;101401.19;2614237;36;20511;-53
2022/06/22 05:36:27;;;;;;;;;;;;;;;14.90;100.00;101412.53;2615630;54;19939;-54
2022/06/22 05:41:39;;;;;;;;;;;;;;;15.24;100.00;101420.03;2616967;36;19950;-55
2022/06/22 05:44:11;;;;;;;;;;;;;;;15.24;100.00;101414.59;2613323;31;19965;-53
2022/06/22 05:46:40;;;;;;;;;;;;;;;15.32;100.00;101416.53;2613835;54;19970;-58
2022/06/22 05:56:50;;;;;;;;;;;;;;;15.37;100.00;101417.78;2618516;36;20324;-58
2022/06/22 06:02:03;;;;;;;;;;;;;;;15.66;100.00;101429.41;2613695;54;19970;-57
2022/06/22 06:04:37;;;;;;;;;;;;;;;15.74;100.00;101422.19;2613507;36;19946;-57
2022/06/22 06:09:39;;;;;;;;;;;;;;;16.02;100.00;101424.84;2616843;36;20310;-58
2022/06/22 06:24:38;;;;;;;;;;;;;;;16.86;100.00;101429.72;2613604;36;19946;-58
2022/06/22 06:29:45;;;;;;;;;;;;;;;18.14;100.00;101433.06;2613201;54;19953;-58
2022/06/22 06:32:33;;;;;;;;;;;;;;;18.92;100.00;101419.75;2612659;36;20440;-57
2022/06/22 06:45:13;;;;;;;;;;;;;;;19.73;100.00;101405.78;2612704;36;19950;-59
2022/06/22 06:50:24;;;;;;;;;;;;;;;19.68;100.00;101408.19;2612361;54;19939;-58
2022/06/22 06:57:57;;;;;;;;;;;;;;;20.03;100.00;101400.41;2612480;54;19963;-58
2022/06/22 07:00:29;;;;;;;;;;;;;;;20.24;100.00;101397.81;2612788;36;20407;-58
2022/06/22 07:02:57;;;;;;;;;;;;;;;19.88;100.00;101403.94;2611479;36;20338;-60
2022/06/22 07:16:02;;;;;;;;;;;;;;;20.39;100.00;101396.94;2612973;36;19946;-60
2022/06/22 07:20:58;;;;;;;;;;;;;;;20.08;100.00;101400.69;2610971;36;19946;-59
2022/06/22 07:23:30;;;;;;;;;;;;;;;20.11;100.00;101392.13;2611052;54;19955;-58
2022/06/22 07:31:19;;;;;;;;;;;;;;;20.46;100.00;101382.38;2614351;54;20062;-59
2022/06/22 07:33:55;;;;;;;;;;;;;;;20.78;100.00;101379.44;2612204;54;19950;-58
2022/06/22 07:36:26;;;;;;;;;;;;;;;20.98;100.00;101375.06;2612970;36;19962;-58
2022/06/22 07:41:23;;;;;;;;;;;;;;;21.27;100.00;101378.72;2614240;39;20360;-59
2022/06/22 07:46:37;;;;;;;;;;;;;;;21.58;79.75;101387.72;2619574;36;19981;-58
2022/06/22 07:49:08;;;;;;;;;;;;;;;21.06;91.47;101390.50;2613950;36;19938;-60
2022/06/22 07:51:38;;;;;;;;;;;;;;;21.52;96.16;101379.25;2610426;36;19961;-58
2022/06/22 07:54:11;;;;;;;;;;;;;;;21.50;100.00;101377.72;2613676;36;19961;-58
2022/06/22 07:56:46;;;;;;;;;;;;;;;21.31;100.00;101382.78;2608824;36;19954;-58
2022/06/22 07:59:17;;;;;;;;;;;;;;;21.29;97.59;101379.41;2613621;36;19982;-60
2022/06/22 08:04:23;;;;;;;;;;;;;;;21.26;89.30;101374.31;2614885;36;19954;-58
2022/06/22 08:06:53;;;;;;;;;;;;;;;21.37;74.59;101378.41;2614145;36;19970;-57
2022/06/22 08:09:25;;;;;;;;;;;;;;;21.18;68.42;101383.47;2613782;54;19947;-56
2022/06/22 08:11:57;;;;;;;;;;;;;;;21.26;63.82;101366.09;2614240;36;19958;-57
2022/06/22 08:14:28;;;;;;;;;;;;;;;21.46;71.74;101370.91;2612385;36;19974;-57
2022/06/22 08:16:57;;;;;;;;;;;;;;;21.28;77.93;101366.75;2614366;36;20374;-58
2022/06/22 08:19:29;;;;;;;;;;;;;;;21.18;94.87;101363.47;2614683;36;20339;-58
2022/06/22 08:22:00;;;;;;;;;;;;;;;21.65;96.31;101364.81;2614700;36;20379;-60
2022/06/22 08:24:30;;;;;;;;;;;;;;;21.43;88.23;101363.09;2612305;36;19951;-57
2022/06/22 08:26:59;;;;;;;;;;;;;;;21.39;84.86;101367.25;2612503;36;19953;-58
2022/06/22 08:29:34;;;;;;;;;;;;;;;21.28;86.18;101366.75;2615131;54;19948;-58
2022/06/22 08:39:57;;;;;;;;;;;;;;;22.13;89.27;101375.09;2615063;54;20066;-58
2022/06/22 08:44:59;;;;;;;;;;;;;;;22.55;85.70;101376.00;2613230;54;19941;-57
2022/06/22 08:47:42;;;;;;;;;;;;;;;22.27;70.52;101377.94;2613043;36;19977;-62
2022/06/22 08:57:57;;;;;;;;;;;;;;;22.17;81.47;101389.25;2612028;36;19951;-58
2022/06/22 09:03:15;;;;;;;;;;;;;;;22.32;73.87;101395.50;2613533;54;21025;-64
2022/06/22 09:10:44;;;;;;;;;;;;;;;22.32;80.29;101395.50;2613102;36;20021;-56
2022/06/22 09:18:52;;;;;;;;;;;;;;;22.34;70.54;101393.41;2612498;54;19938;-57
2022/06/22 09:21:29;;;;;;;;;;;;;;;22.43;80.48;101396.84;2615280;36;19985;-61
2022/06/22 09:29:00;;;;;;;;;;;;;;;22.93;70.50;101402.97;2612374;54;19950;-62
2022/06/22 09:36:40;;;;;;;;;;;;;;;22.75;69.28;101409.03;2615156;36;19947;-56
2022/06/22 09:39:26;;;;;;;;;;;;;;;23.06;64.36;101412.34;2615129;31;19954;-62
2022/06/22 09:42:15;;;;;;;;;;;;;;;22.89;68.29;101409.09;2614140;36;19997;-57
2022/06/22 09:44:58;;;;;;;;;;;;;;;22.97;74.42;101419.03;2617825;36;20643;-61
2022/06/22 09:47:41;;;;;;;;;;;;;;;22.95;74.92;101424.75;2614125;36;19946;-59
2022/06/22 09:50:23;;;;;;;;;;;;;;;23.29;75.78;101417.50;2619097;36;19957;-59
2022/06/22 09:53:06;;;;;;;;;;;;;;;23.46;78.73;101411.63;2611964;36;19951;-58
2022/06/22 10:03:39;;;;;;;;;;;;;;;23.38;68.65;101410.78;2612563;54;19946;-57
2022/06/22 10:06:21;;;;;;;;;;;;;;;23.02;72.26;101403.66;2606797;36;19985;-63
2022/06/22 10:23:57;;;;;;;;;;;;;;;24.06;64.37;101376.81;2637422;36;19950;-58
2022/06/22 10:34:21;;;;;;;;;;;;;;;24.01;63.65;101360.09;2613280;36;19953;-59
2022/06/22 10:36:59;;;;;;;;;;;;;;;24.13;58.28;101363.91;2613751;36;19947;-57
2022/06/22 10:47:04;;;;;;;;;;;;;;;24.12;58.82;101366.84;2610769;36;20783;-57
2022/06/22 10:49:47;;;;;;;;;;;;;;;24.29;62.82;101364.47;2613195;54;19954;-59
2022/06/22 10:52:38;;;;;;;;;;;;;;;24.13;50.76;101361.16;2613277;36;20045;-62
2022/06/22 10:55:18;;;;;;;;;;;;;;;24.57;55.16;101368.84;2614490;36;19962;-58
2022/06/22 11:00:35;;;;;;;;;;;;;;;25.18;49.58;101353.78;2612444;36;19990;-57
2022/06/22 11:03:27;;;;;;;;;;;;;;;25.06;48.68;101361.03;2614018;36;20356;-58
2022/06/22 11:09:04;;;;;;;;;;;;;;;25.84;46.25;101357.97;2614230;36;19982;-60
2022/06/22 11:17:23;;;;;;;;;;;;;;;25.71;52.71;101353.41;2611846;36;19981;-60
2022/06/22 11:22:45;;;;;;;;;;;;;;;25.58;52.95;101347.16;2605063;36;19955;-63
2022/06/22 11:30:51;;;;;;;;;;;;;;;26.34;50.70;101339.66;2613967;36;20428;-62
2022/06/22 11:33:35;;;;;;;;;;;;;;;26.02;54.04;101348.09;2613346;36;20407;-59
2022/06/22 11:36:11;;;;;;;;;;;;;;;25.76;52.91;101344.44;2612885;36;19950;-59
2022/06/22 11:38:52;;;;;;;;;;;;;;;25.39;49.42;101327.81;2618222;36;19954;-59
2022/06/22 11:44:21;;;;;;;;;;;;;;;25.65;52.10;101335.00;2613056;39;20348;-63
2022/06/22 11:46:51;;;;;;;;;;;;;;;26.11;51.99;101330.16;2613907;36;20073;-58
2022/06/22 11:49:29;;;;;;;;;;;;;;;25.95;50.98;101339.00;2612162;36;20356;-58
2022/06/22 11:52:22;;;;;;;;;;;;;;;25.76;48.77;101333.44;2613013;36;19946;-64
2022/06/22 11:54:55;;;;;;;;;;;;;;;26.10;48.36;101327.63;2613098;36;19946;-59
2022/06/22 11:57:31;;;;;;;;;;;;;;;26.07;50.83;101319.81;2612135;36;19950;-59
2022/06/22 12:00:07;;;;;;;;;;;;;;;26.15;48.04;101323.13;2610712;36;19946;-60
2022/06/22 12:02:54;;;;;;;;;;;;;;;26.05;48.03;101314.53;2612222;36;19953;-58
2022/06/22 12:07:57;;;;;;;;;;;;;;;27.10;43.45;101298.75;2611311;36;20002;-62
2022/06/22 12:10:36;;;;;;;;;;;;;;;27.33;44.60;101298.00;2614547;36;19940;-58
2022/06/22 12:13:14;;;;;;;;;;;;;;;27.01;43.99;101305.72;2610476;36;20352;-59
2022/06/22 12:15:49;;;;;;;;;;;;;;;27.08;43.07;101300.94;2611771;36;19951;-65
2022/06/22 12:18:22;;;;;;;;;;;;;;;26.81;44.29;101306.84;2611428;36;20432;-58
2022/06/22 12:21:01;;;;;;;;;;;;;;;26.75;45.39;101310.50;2614025;36;20508;-59
2022/06/22 12:23:40;;;;;;;;;;;;;;;27.31;46.30;101299.28;2604313;31;19987;-63
2022/06/22 12:26:17;;;;;;;;;;;;;;;27.55;44.76;101305.75;2612268;31;19958;-60
2022/06/22 12:31:24;;;;;;;;;;;;;;;26.92;43.99;101294.97;2607056;36;19962;-64
2022/06/22 12:33:54;;;;;;;;;;;;;;;26.79;46.25;101289.66;2609694;36;19971;-59
2022/06/22 12:36:25;;;;;;;;;;;;;;;26.03;42.44;101294.59;2613313;31;19950;-57
2022/06/22 12:38:59;;;;;;;;;;;;;;;26.61;44.68;101284.97;2611908;36;19946;-60
2022/06/22 12:41:43;;;;;;;;;;;;;;;27.18;42.63;101270.81;2613072;36;19951;-64
2022/06/22 12:44:26;;;;;;;;;;;;;;;27.45;39.20;101278.69;2612267;36;19947;-59
2022/06/22 12:47:02;;;;;;;;;;;;;;;27.24;42.70;101278.13;2614094;36;19947;-59
2022/06/22 12:49:43;;;;;;;;;;;;;;;27.30;42.37;101275.47;2614489;36;20001;-61
2022/06/22 12:52:15;;;;;;;;;;;;;;;26.60;41.42;101279.69;2613441;36;19946;-57
2022/06/22 12:57:16;;;;;;;;;;;;;;;27.65;39.54;101267.28;2609875;36;19985;-58
2022/06/22 12:59:46;;;;;;;;;;;;;;;26.39;42.33;101277.19;2613180;31;19950;-59
2022/06/22 13:02:15;;;;;;;;;;;;;;;26.71;41.19;101270.66;2611921;36;19950;-60
2022/06/22 13:04:44;;;;;;;;;;;;;;;26.60;40.34;101271.41;2610372;36;19954;-58
2022/06/22 13:07:15;;;;;;;;;;;;;;;27.11;40.35;101272.81;2611989;36;19981;-60
2022/06/22 13:09:44;;;;;;;;;;;;;;;27.04;38.19;101266.56;2610455;36;19950;-62
2022/06/22 13:12:21;;;;;;;;;;;;;;;27.29;37.44;101260.84;2610472;36;19954;-58
2022/06/22 13:14:53;;;;;;;;;;;;;;;27.50;38.69;101261.38;2612651;36;20439;-58
2022/06/22 13:17:27;;;;;;;;;;;;;;;27.74;38.25;101257.53;2611759;36;19954;-58
2022/06/22 13:20:09;;;;;;;;;;;;;;;27.39;38.39;101265.81;2613937;36;20344;-63
2022/06/22 13:25:10;;;;;;;;;;;;;;;27.50;38.60;101245.59;2612136;36;19950;-57
2022/06/22 13:27:45;;;;;;;;;;;;;;;27.75;39.86;101244.53;2612328;36;19989;-64
2022/06/22 13:30:18;;;;;;;;;;;;;;;28.18;38.64;101243.31;2603561;32;19954;-58
2022/06/22 13:37:46;;;;;;;;;;;;;;;28.36;39.08;101233.13;2608198;54;20034;-59
2022/06/22 13:40:26;;;;;;;;;;;;;;;27.42;38.74;101237.69;2609646;36;19946;-60
2022/06/22 13:43:09;;;;;;;;;;;;;;;27.84;40.55;101236.69;2613273;36;19953;-58
2022/06/22 13:45:48;;;;;;;;;;;;;;;28.50;40.19;101223.44;2610731;36;19954;-58
2022/06/22 13:56:10;;;;;;;;;;;;;;;27.93;40.26;101229.72;2618308;36;20371;-57
2022/06/22 13:58:41;;;;;;;;;;;;;;;27.89;39.47;101223.84;2612876;36;20436;-59
2022/06/22 14:01:13;;;;;;;;;;;;;;;27.75;41.57;101222.41;2612793;36;19947;-59
2022/06/22 14:06:20;;;;;;;;;;;;;;;28.36;40.03;101217.38;2611525;36;20058;-61
2022/06/22 14:13:59;;;;;;;;;;;;;;;28.18;40.82;101218.41;2610812;36;19970;-61
2022/06/22 14:16:32;;;;;;;;;;;;;;;28.91;38.09;101221.44;2611358;31;19947;-60
2022/06/22 14:19:04;;;;;;;;;;;;;;;29.31;37.56;101228.81;2610567;36;19954;-58
2022/06/22 14:21:37;;;;;;;;;;;;;;;29.00;35.95;101219.09;2610781;36;19951;-58
2022/06/22 14:24:11;;;;;;;;;;;;;;;28.70;37.99;101222.19;2612198;36;19954;-62
2022/06/22 14:32:18;;;;;;;;;;;;;;;29.24;37.72;101222.59;2613158;36;19982;-58
2022/06/22 14:34:59;;;;;;;;;;;;;;;29.09;37.08;101212.03;2606768;36;19981;-57
2022/06/22 14:37:30;;;;;;;;;;;;;;;29.13;37.52;101209.63;2606293;36;19966;-62
2022/06/22 14:40:00;;;;;;;;;;;;;;;28.39;37.64;101207.72;2612162;36;20545;-62
2022/06/22 14:42:31;;;;;;;;;;;;;;;28.19;37.59;101217.28;2612029;31;19950;-56
2022/06/22 14:47:37;;;;;;;;;;;;;;;29.32;39.52;101213.84;2611047;54;20389;-59
2022/06/22 14:50:16;;;;;;;;;;;;;;;28.63;38.16;101214.84;2611896;36;19970;-58
2022/06/22 14:57:39;;;;;;;;;;;;;;;29.22;36.88;101215.63;2611093;54;19970;-57
2022/06/22 15:00:19;;;;;;;;;;;;;;;28.51;37.66;101210.44;2613425;36;20041;-64
2022/06/22 15:02:52;;;;;;;;;;;;;;;28.90;38.52;101205.94;2610894;36;20456;-57
2022/06/22 15:05:24;;;;;;;;;;;;;;;28.99;37.90;101211.91;2611172;36;20296;-58
2022/06/22 15:07:55;;;;;;;;;;;;;;;28.99;36.71;101207.19;2607919;36;20333;-60
2022/06/22 15:10:28;;;;;;;;;;;;;;;29.13;36.92;101206.84;2612532;36;19946;-61
2022/06/22 15:12:58;;;;;;;;;;;;;;;29.18;36.79;101212.47;2611757;36;19947;-58
2022/06/22 15:15:36;;;;;;;;;;;;;;;29.38;34.83;101211.16;2611678;36;19970;-58
2022/06/22 15:18:16;;;;;;;;;;;;;;;29.32;35.52;101205.53;2610987;31;19958;-63
2022/06/22 15:20:49;;;;;;;;;;;;;;;30.07;34.70;101208.00;2610295;36;19950;-58
2022/06/22 15:23:22;;;;;;;;;;;;;;;28.25;41.16;101204.41;2610778;36;20004;-59
2022/06/22 15:25:58;;;;;;;;;;;;;;;28.10;41.31;101204.94;2610124;36;19977;-57
2022/06/22 15:28:32;;;;;;;;;;;;;;;28.78;42.70;101217.09;2610042;31;19954;-56
2022/06/22 15:33:48;;;;;;;;;;;;;;;28.18;46.28;101198.16;2614137;36;19961;-58
2022/06/22 15:36:24;;;;;;;;;;;;;;;28.43;48.32;101195.06;2609439;36;19950;-60
2022/06/22 15:38:58;;;;;;;;;;;;;;;28.20;48.32;101196.84;2609818;54;19954;-60
2022/06/22 15:41:33;;;;;;;;;;;;;;;27.22;49.96;101207.59;2612002;36;19951;-57
2022/06/22 15:44:08;;;;;;;;;;;;;;;27.21;49.32;101206.75;2613359;36;19946;-64
2022/06/22 15:46:45;;;;;;;;;;;;;;;27.87;48.22;101214.09;2606357;36;19954;-58
2022/06/22 15:49:20;;;;;;;;;;;;;;;27.68;50.53;101205.97;2612544;36;19990;-60
2022/06/22 15:51:50;;;;;;;;;;;;;;;27.66;49.71;101207.28;2610894;36;19947;-63
2022/06/22 15:54:25;;;;;;;;;;;;;;;26.83;51.13;101199.72;2613519;36;19981;-61
2022/06/22 15:56:57;;;;;;;;;;;;;;;28.27;49.37;101202.25;2610823;36;19950;-57
2022/06/22 15:59:33;;;;;;;;;;;;;;;28.98;47.66;101199.97;2614128;36;19957;-59
2022/06/22 16:02:02;;;;;;;;;;;;;;;27.93;49.06;101191.84;2612343;36;19973;-62
2022/06/22 16:04:38;;;;;;;;;;;;;;;27.81;48.21;101202.06;2613674;36;19970;-56
2022/06/22 16:07:11;;;;;;;;;;;;;;;27.78;51.47;101195.13;2610839;36;19985;-57
2022/06/22 16:09:55;;;;;;;;;;;;;;;29.11;49.47;101189.66;2612377;36;19994;-57
2022/06/22 16:15:21;;;;;;;;;;;;;;;28.83;45.99;101189.47;2614021;36;19962;-58
2022/06/22 16:17:55;;;;;;;;;;;;;;;28.00;47.67;101196.41;2613676;31;19989;-62
2022/06/22 16:20:32;;;;;;;;;;;;;;;27.82;48.44;101203.75;2614543;36;21705;-60
2022/06/22 16:23:04;;;;;;;;;;;;;;;27.71;47.45;101196.31;2610597;36;19970;-58
2022/06/22 16:25:46;;;;;;;;;;;;;;;27.65;49.46;101195.38;2611145;36;19938;-58
2022/06/22 16:28:17;;;;;;;;;;;;;;;28.81;48.23;101185.25;2613271;36;19962;-58
2022/06/22 16:30:57;;;;;;;;;;;;;;;28.22;46.77;101189.13;2614129;36;20369;-57
2022/06/22 16:33:29;;;;;;;;;;;;;;;28.47;47.04;101191.56;2612687;36;19953;-59
2022/06/22 16:36:04;;;;;;;;;;;;;;;29.08;47.92;101188.22;2612153;36;19958;-61
2022/06/22 16:38:36;;;;;;;;;;;;;;;29.53;47.64;101191.97;2614026;31;19950;-58
2022/06/22 16:46:12;;;;;;;;;;;;;;;27.89;49.04;101185.09;2611371;36;20070;-61
2022/06/22 16:48:43;;;;;;;;;;;;;;;28.65;45.86;101178.59;2614235;36;20447;-59
2022/06/22 16:51:20;;;;;;;;;;;;;;;28.06;44.89;101174.16;2613882;36;20351;-58
2022/06/22 16:53:54;;;;;;;;;;;;;;;28.08;45.58;101176.69;2614038;36;19946;31
2022/06/22 16:56:24;;;;;;;;;;;;;;;28.37;46.00;101173.91;2606083;36;19954;-59
2022/06/22 16:58:54;;;;;;;;;;;;;;;28.30;45.10;101165.75;2610956;36;19981;-58
2022/06/22 17:01:29;;;;;;;;;;;;;;;28.22;46.04;101177.22;2613855;36;19950;-57
2022/06/22 17:04:01;;;;;;;;;;;;;;;28.32;47.67;101167.16;2613027;36;20327;-66
2022/06/22 17:06:35;;;;;;;;;;;;;;;28.13;48.80;101165.69;2613262;36;20399;-59
2022/06/22 17:09:06;;;;;;;;;;;;;;;27.83;49.25;101161.19;2613216;36;19971;-57
2022/06/22 17:11:37;;;;;;;;;;;;;;;27.74;48.43;101173.72;2612599;36;20385;-59
2022/06/22 17:14:05;;;;;;;;;;;;;;;27.48;49.69;101173.16;2613961;36;19951;-65
2022/06/22 17:16:39;;;;;;;;;;;;;;;27.83;51.28;101175.03;2613604;54;19955;-61
2022/06/22 17:19:11;;;;;;;;;;;;;;;27.48;51.36;101178.69;2612404;36;19962;-59
2022/06/22 17:21:47;;;;;;;;;;;;;;;27.70;53.69;101184.41;2614546;31;19938;31
2022/06/22 17:24:24;;;;;;;;;;;;;;;27.90;52.18;101180.41;2617533;31;19958;-66
2022/06/22 17:26:57;;;;;;;;;;;;;;;27.35;53.19;101176.16;2611172;36;19957;-57
2022/06/22 17:29:32;;;;;;;;;;;;;;;27.76;55.04;101179.84;2612473;36;19977;-58
2022/06/22 17:37:24;;;;;;;;;;;;;;;27.67;60.94;101190.44;2610058;36;19958;-58
2022/06/22 17:39:59;;;;;;;;;;;;;;;27.27;62.27;101178.16;2613431;36;19981;-59
2022/06/22 17:42:30;;;;;;;;;;;;;;;26.57;70.83;101182.47;2610701;36;20443;-61
2022/06/22 17:45:05;;;;;;;;;;;;;;;25.80;81.72;101191.28;2612475;36;19982;-60
2022/06/22 17:47:36;;;;;;;;;;;;;;;24.95;98.01;101189.13;2612445;36;19978;-61
2022/06/22 17:50:06;;;;;;;;;;;;;;;24.89;100.00;101187.25;2613742;31;20308;-62
2022/06/22 17:52:37;;;;;;;;;;;;;;;24.48;100.00;101184.75;2611892;36;19954;-65
2022/06/22 17:55:07;;;;;;;;;;;;;;;24.30;100.00;101187.38;2605658;31;20386;-58
2022/06/22 17:57:38;;;;;;;;;;;;;;;23.95;100.00;101198.72;2612857;36;19957;-61
2022/06/22 18:00:08;;;;;;;;;;;;;;;23.50;100.00;101199.47;2607237;36;20340;-58
2022/06/22 18:02:40;;;;;;;;;;;;;;;23.58;100.00;101201.13;2613224;36;19947;-63
2022/06/22 18:07:53;;;;;;;;;;;;;;;23.59;100.00;101197.34;2612639;54;19969;-57
2022/06/22 18:10:23;;;;;;;;;;;;;;;23.46;100.00;101194.63;2612056;31;19946;-66
2022/06/22 18:15:18;;;;;;;;;;;;;;;23.36;100.00;101186.81;2613968;36;19950;-59
2022/06/22 18:17:52;;;;;;;;;;;;;;;23.28;100.00;101185.13;2611056;36;20037;-56
2022/06/22 18:20:25;;;;;;;;;;;;;;;23.44;100.00;101192.91;2612588;36;19947;-58
2022/06/22 18:22:57;;;;;;;;;;;;;;;23.21;100.00;101187.03;2609727;36;20397;-63
2022/06/22 18:25:30;;;;;;;;;;;;;;;23.11;100.00;101181.94;2610583;36;19978;-60
2022/06/22 18:28:02;;;;;;;;;;;;;;;23.05;100.00;101180.03;2610477;36;20009;-59
2022/06/22 18:30:35;;;;;;;;;;;;;;;22.99;100.00;101189.94;2611535;36;19972;-58
2022/06/22 18:33:07;;;;;;;;;;;;;;;23.07;100.00;101188.88;2613630;36;19947;-61
2022/06/22 18:35:39;;;;;;;;;;;;;;;23.07;100.00;101189.75;2614454;36;19958;-59
2022/06/22 18:38:14;;;;;;;;;;;;;;;23.10;100.00;101183.03;2614097;36;19965;-58
2022/06/22 18:43:34;;;;;;;;;;;;;;;22.82;100.00;101169.44;2614160;36;20525;-62
2022/06/22 18:46:04;;;;;;;;;;;;;;;22.91;100.00;101173.69;2614857;36;20002;-58
2022/06/22 18:48:35;;;;;;;;;;;;;;;22.60;100.00;101166.91;2613017;31;19946;-54
2022/06/22 18:51:04;;;;;;;;;;;;;;;22.61;100.00;101174.06;2614170;36;20062;-62
2022/06/22 18:53:38;;;;;;;;;;;;;;;22.69;100.00;101175.78;2613788;31;19985;-58
2022/06/22 18:56:08;;;;;;;;;;;;;;;22.61;100.00;101179.56;2614180;36;20031;-57
2022/06/22 18:58:42;;;;;;;;;;;;;;;22.61;100.00;101179.56;2611821;36;19951;-58
2022/06/22 19:01:14;;;;;;;;;;;;;;;22.47;100.00;101186.09;2606507;36;19947;-63
2022/06/22 19:03:53;;;;;;;;;;;;;;;22.50;100.00;101188.41;2607279;31;19947;-61
2022/06/22 19:06:26;;;;;;;;;;;;;;;22.51;100.00;101184.59;2613151;36;19951;-63
2022/06/22 19:09:04;;;;;;;;;;;;;;;22.49;100.00;101186.72;2614002;36;19955;-57
2022/06/22 19:11:34;;;;;;;;;;;;;;;22.37;100.00;101195.53;2611942;36;19958;-59
2022/06/22 19:14:03;;;;;;;;;;;;;;;22.48;100.00;101191.38;2614349;36;19953;-59
2022/06/22 19:16:38;;;;;;;;;;;;;;;22.48;100.00;101193.25;2615358;36;20365;-58